Latest Weather Observations for Shark Bay Airport

IDW60801

Issued at 8:32 pm WST Sunday 19 April 2015 (issued every 30 minutes, with the page automatically refreshed every 10 minutes)

About weather observations | Map of weather stations | Latest weather observations for WA | Other Formats
Station Details ID: 006105 Name: SHARK BAY AIRPORT Lat: -25.89 Lon: 113.58 Height: 33.8 m
Data from the previous 72 hours. | See also: Recent months for locations in Western Australia
Date/Time
WST
Temp
°C
App
Temp
°C
Dew
Point
Rel
Hum
%
Delta-T
°C
Wind Press
QNH
hPa
Press
MSL
hPa
Rain
since 9 am
mm
Dir
 
Spd
km/h
Gust
km/h
Spd
kts
Gust
kts
19/08:30pm 23.3 22.5 14.0 56 5.4 SSE 11 15 6 8 1018.2 1018.1 0.0
19/08:00pm 24.1 22.2 13.0 50 6.4 SSE 15 19 8 10 1017.9 1017.8 0.0
19/07:30pm 24.6 22.0 9.3 38 8.3 S 13 19 7 10 1017.7 1017.6 0.0
19/07:00pm 24.9 22.2 7.5 33 9.2 ESE 11 13 6 7 1017.4 1017.3 0.0
19/06:30pm 25.4 23.5 7.5 32 9.5 SE 7 13 4 7 1016.9 1016.8 0.0
19/06:00pm 27.2 24.4 7.1 28 10.7 SE 11 13 6 7 1016.4 1016.3 0.0
19/05:30pm 29.3 25.7 6.7 24 12.1 ESE 15 20 8 11 1016.1 1016.0 0.0
19/05:00pm 30.0 26.0 6.6 23 12.5 ESE 17 24 9 13 1016.0 1015.9 0.0
19/04:30pm 30.5 26.2 7.0 23 12.7 E 19 26 10 14 1015.9 1015.8 0.0
19/04:00pm 30.7 26.4 7.2 23 12.7 ESE 19 28 10 15 1015.8 1015.7 0.0
19/03:30pm 31.1 26.9 7.5 23 12.9 E 19 26 10 14 1015.8 1015.7 0.0
19/03:00pm 31.0 26.2 7.5 23 12.8 E 22 30 12 16 1015.8 1015.7 0.0
19/02:30pm 30.6 26.1 7.1 23 12.7 E 20 30 11 16 1015.9 1015.8 0.0
19/02:00pm 30.3 25.8 6.9 23 12.6 E 20 32 11 17 1016.1 1016.0 0.0
19/01:30pm 30.3 26.1 8.1 25 12.2 E 20 32 11 17 1016.3 1016.2 0.0
19/01:00pm 29.7 24.6 7.6 25 12.0 ENE 24 35 13 19 1016.7 1016.6 0.0
19/12:30pm 29.5 24.5 8.0 26 11.7 E 24 41 13 22 1017.2 1017.1 0.0
19/12:00pm 28.6 23.3 8.3 28 11.1 E 26 39 14 21 1017.5 1017.4 0.0
19/11:30am 27.9 22.5 8.2 29 10.7 ENE 26 35 14 19 1017.9 1017.8 0.0
19/11:00am 27.7 22.9 9.0 31 10.3 E 24 33 13 18 1018.3 1018.2 0.0
19/10:30am 26.7 21.2 9.1 33 9.7 ENE 28 35 15 19 1018.5 1018.4 0.0
19/10:00am 26.0 20.6 9.4 35 9.1 ENE 28 35 15 19 1018.7 1018.6 0.0
19/09:30am 25.9 20.7 10.1 37 8.8 ENE 28 35 15 19 1018.6 1018.5 0.0
19/09:00am 25.0 20.5 10.1 39 8.2 E 24 33 13 18 1018.6 1018.5 0.0
19/08:30am 24.1 20.7 11.1 44 7.3 ENE 20 33 11 18 1018.4 1018.3 0.0
19/08:00am 23.0 21.0 13.8 56 5.4 E 17 24 9 13 1018.0 1017.9 0.0
19/07:30am 21.1 19.7 14.5 66 3.9 E 15 20 8 11 1017.7 1017.6 0.0
19/07:00am 19.4 18.0 14.6 74 2.8 ESE 15 19 8 10 1017.3 1017.2 0.0
19/06:30am 19.2 18.0 15.1 77 2.4 ESE 15 17 8 9 1017.0 1016.9 0.0
19/06:00am 19.4 18.7 15.5 78 2.3 ESE 13 17 7 9 1016.8 1016.7 0.0
19/05:30am 19.6 18.7 15.9 79 2.2 ESE 15 17 8 9 1016.6 1016.5 0.0
19/05:00am 20.0 19.2 16.0 78 2.4 ESE 15 20 8 11 1016.5 1016.4 0.0
19/04:30am 19.9 19.1 16.0 78 2.3 ESE 15 17 8 9 1016.4 1016.3 0.0
19/04:00am 20.2 19.7 15.8 76 2.6 ESE 13 15 7 8 1016.5 1016.4 0.0
19/03:30am 20.7 20.4 16.5 77 2.5 ESE 13 17 7 9 1016.5 1016.4 0.0
19/03:00am 20.2 20.1 16.0 77 2.5 ESE 11 13 6 7 1016.5 1016.4 0.0
19/02:30am 20.4 19.6 15.2 72 3.1 ESE 13 15 7 8 1016.6 1016.5 0.0
19/02:00am 21.2 20.5 15.5 70 3.4 ESE 13 15 7 8 1016.7 1016.6 0.0
19/01:30am 21.8 20.8 15.6 68 3.7 E 15 20 8 11 1016.8 1016.7 0.0
19/01:00am 21.7 21.0 15.3 67 3.8 E 13 15 7 8 1017.0 1016.9 0.0
19/12:30am 22.4 21.7 15.3 64 4.2 E 13 17 7 9 1017.0 1016.9 0.0
19/12:00am 23.2 22.1 15.3 61 4.7 E 15 19 8 10 1017.0 1016.9 0.0
 
Date/Time
WST
Temp
°C
App
Temp
°C
Dew
Point
Rel
Hum
%
Delta-T
°C
Wind Press
QNH
hPa
Press
MSL
hPa
Rain
since 9 am
mm
Dir
 
Spd
km/h
Gust
km/h
Spd
kts
Gust
kts
18/11:30pm 23.4 22.0 15.5 61 4.8 E 17 20 9 11 1016.8 1016.7 0.0
18/11:00pm 22.6 22.3 16.4 68 3.8 E 13 17 7 9 1016.8 1016.7 0.0
18/10:30pm 23.0 23.0 17.2 70 3.6 ESE 13 17 7 9 1017.0 1016.9 0.0
18/10:00pm 22.8 23.6 18.1 75 2.9 SE 11 13 6 7 1016.9 1016.8 0.0
18/09:30pm 23.2 24.3 18.9 77 2.7 SSE 11 13 6 7 1017.1 1017.0 0.0
18/09:00pm 22.8 24.4 19.2 80 2.3 S 9 13 5 7 1017.2 1017.1 0.0
18/08:30pm 22.6 24.2 19.2 81 2.2 S 9 11 5 6 1016.8 1016.7 0.0
18/08:00pm 22.8 24.5 19.4 81 2.2 S 9 13 5 7 1016.6 1016.5 0.0
18/07:30pm 22.7 24.2 18.9 79 2.4 SSW 9 11 5 6 1016.4 1016.3 0.0
18/07:00pm 23.2 24.6 18.7 76 2.8 WSW 9 11 5 6 1016.2 1016.1 0.0
18/06:30pm 23.7 25.6 19.0 75 3.0 W 7 9 4 5 1016.0 1015.9 0.0
18/06:00pm 24.5 26.1 19.1 72 3.4 W 9 11 5 6 1015.6 1015.5 0.0
18/05:30pm 25.6 26.8 19.0 67 4.2 W 11 13 6 7 1015.3 1015.2 0.0
18/05:00pm 26.8 28.5 18.6 60 5.2 SSW 7 13 4 7 1015.1 1015.0 0.0
18/04:30pm 27.4 29.4 18.7 59 5.6 NE 6 9 3 5 1015.0 1014.9 0.0
18/04:00pm 27.2 28.4 18.2 58 5.7 NE 9 19 5 10 1015.1 1015.0 0.0
18/03:30pm 27.9 28.9 18.6 57 6.0 NNE 11 17 6 9 1014.7 1014.6 0.0
18/03:00pm 27.7 29.1 18.7 58 5.8 NNE 9 15 5 8 1014.8 1014.7 0.0
18/02:30pm 28.1 29.3 19.9 61 5.4 NNE 13 19 7 10 1015.0 1014.9 0.0
18/02:00pm 27.3 27.7 18.9 60 5.4 NE 15 22 8 12 1015.2 1015.1 0.0
18/01:30pm 26.9 26.7 18.5 60 5.4 NE 17 26 9 14 1015.5 1015.4 0.0
18/01:00pm 27.3 27.4 19.1 61 5.3 NNE 17 24 9 13 1015.8 1015.7 0.0
18/12:30pm 27.3 26.6 18.6 59 5.6 NNE 20 28 11 15 1016.1 1016.0 0.0
18/12:00pm 26.6 25.8 17.9 59 5.5 ENE 19 28 10 15 1016.3 1016.2 0.0
18/11:30am 26.1 25.0 17.2 58 5.6 ENE 19 28 10 15 1016.4 1016.3 0.0
18/11:00am 26.3 24.1 16.8 56 5.9 ENE 24 33 13 18 1016.5 1016.4 0.0
18/10:30am 25.3 22.9 15.3 54 6.0 E 22 32 12 17 1016.6 1016.5 0.0
18/10:00am 25.1 22.2 15.1 53 6.0 E 24 33 13 18 1016.9 1016.8 0.0
18/09:30am 23.9 21.1 14.3 55 5.7 E 22 32 12 17 1016.8 1016.7 0.0
18/09:00am 23.5 20.8 14.5 57 5.3 ESE 22 28 12 15 1016.7 1016.6 0.0
18/08:30am 23.2 20.9 14.7 58 5.0 ESE 20 28 11 15 1016.3 1016.2 0.0
18/08:00am 22.2 19.8 14.3 61 4.6 ESE 20 26 11 14 1016.0 1015.9 0.0
18/07:30am 21.6 19.8 14.5 64 4.2 ESE 17 24 9 13 1015.8 1015.7 0.0
18/07:00am 21.5 19.2 14.2 63 4.3 ESE 19 22 10 12 1015.6 1015.5 0.0
18/06:30am 21.4 19.5 14.1 63 4.3 ESE 17 20 9 11 1015.3 1015.2 0.0
18/06:00am 21.3 19.3 14.0 63 4.2 ESE 17 22 9 12 1015.1 1015.0 0.0
18/05:30am 21.5 19.6 14.2 63 4.3 ESE 17 22 9 12 1015.0 1014.9 0.0
18/05:00am 21.6 19.6 14.0 62 4.4 ESE 17 22 9 12 1014.8 1014.7 0.0
18/04:30am 21.9 19.9 14.0 61 4.6 ESE 17 22 9 12 1014.6 1014.5 0.0
18/04:00am 22.0 20.0 13.9 60 4.7 ESE 17 22 9 12 1014.6 1014.5 0.0
18/03:30am 22.0 20.2 14.4 62 4.5 ESE 17 20 9 11 1014.7 1014.6 0.0
18/03:00am 21.8 20.0 14.4 63 4.3 ESE 17 20 9 11 1014.8 1014.7 0.0
18/02:30am 21.5 19.9 13.9 62 4.4 ESE 15 19 8 10 1014.9 1014.8 0.0
18/02:00am 21.5 19.8 13.7 61 4.5 ESE 15 20 8 11 1015.2 1015.1 0.0
18/01:30am 21.8 20.2 13.9 61 4.6 ESE 15 19 8 10 1015.4 1015.3 0.0
18/01:00am 21.8 19.9 14.2 62 4.4 ESE 17 20 9 11 1015.4 1015.3 0.0
18/12:30am 21.7 20.1 13.9 61 4.5 SE 15 20 8 11 1015.4 1015.3 0.0
18/12:00am 21.5 20.4 14.2 63 4.3 SE 13 19 7 10 1015.4 1015.3 0.0
 
Date/Time
WST
Temp
°C
App
Temp
°C
Dew
Point
Rel
Hum
%
Delta-T
°C
Wind Press
QNH
hPa
Press
MSL
hPa
Rain
since 9 am
mm
Dir
 
Spd
km/h
Gust
km/h
Spd
kts
Gust
kts
17/11:30pm 21.2 20.5 15.5 70 3.4 SE 13 15 7 8 1015.6 1015.5 0.0
17/11:00pm 21.6 21.4 16.8 74 2.9 SSE 13 15 7 8 1015.8 1015.7 0.0
17/10:30pm 21.7 22.0 17.9 79 2.4 S 13 17 7 9 1016.0 1015.9 0.0
17/10:00pm 21.8 22.1 18.0 79 2.4 SSW 13 17 7 9 1016.1 1016.0 0.0
17/09:30pm 22.1 22.4 17.9 77 2.6 SSW 13 19 7 10 1016.3 1016.2 0.0
17/09:00pm 22.3 22.2 17.9 76 2.7 S 15 20 8 11 1016.4 1016.3 0.0
17/08:30pm 22.4 21.9 17.8 75 2.9 S 17 20 9 11 1016.5 1016.4 0.0
17/08:00pm 22.3 21.5 17.2 73 3.1 S 17 22 9 12 1016.0 1015.9 0.0
17/07:30pm 22.4 21.2 17.1 72 3.3 S 19 24 10 13 1016.1 1016.0 0.0
17/07:00pm 22.6 20.8 15.9 66 4.0 S 20 28 11 15 1015.9 1015.8 0.0
17/06:30pm 23.0 21.8 17.0 69 3.7 S 19 26 10 14 1015.5 1015.4 0.0
17/06:00pm 24.1 22.5 16.4 62 4.7 S 20 26 11 14 1015.2 1015.1 0.0
17/05:30pm 26.1 24.4 13.6 46 7.4 SSW 15 20 8 11 1014.8 1014.7 0.0
17/05:00pm 27.7 25.5 12.1 38 9.0 SE 15 20 8 11 1014.7 1014.6 0.0
17/04:30pm 27.7 26.3 13.3 41 8.5 SE 13 19 7 10 1014.7 1014.6 0.0
17/04:00pm 27.7 25.3 12.5 39 8.9 SE 17 20 9 11 1014.8 1014.7 0.0
17/03:30pm 28.1 25.9 13.2 39 8.8 SE 17 24 9 13 1014.8 1014.7 0.0
17/03:00pm 27.7 25.9 13.3 41 8.5 ESE 15 22 8 12 1015.1 1015.0 0.0
17/02:30pm 27.4 25.1 13.0 41 8.5 SE 17 24 9 13 1015.3 1015.2 0.0
17/02:00pm 26.9 24.7 13.3 43 8.0 ESE 17 26 9 14 1015.7 1015.6 0.0
17/01:30pm 26.5 23.8 13.6 45 7.6 ESE 20 26 11 14 1015.8 1015.7 0.0
17/01:00pm 25.7 22.6 13.5 46 7.2 ESE 22 28 12 15 1016.1 1016.0 0.0
17/12:30pm 26.0 23.2 13.2 45 7.5 ESE 20 30 11 16 1016.5 1016.4 0.0
17/12:00pm 25.8 21.7 12.6 44 7.6 E 26 35 14 19 1016.8 1016.7 0.0
17/11:30am 25.4 21.0 12.9 45 7.3 E 28 39 15 21 1017.2 1017.1 0.0
17/11:00am 24.8 20.7 12.7 47 7.0 ESE 26 39 14 21 1017.6 1017.5 0.0
17/10:30am 24.2 20.0 13.4 51 6.3 ESE 28 41 15 22 1018.1 1018.0 0.0
17/10:00am 23.4 19.1 13.3 53 5.8 E 28 37 15 20 1018.4 1018.3 0.0
17/09:30am 22.5 18.1 13.0 55 5.5 ESE 28 39 15 21 1018.4 1018.3 0.0
17/09:00am 22.1 17.6 12.6 55 5.4 ESE 28 39 15 21 1018.7 1018.6 0.0
17/08:30am 21.8 18.2 13.2 58 4.9 E 24 32 13 17 1018.7 1018.6 0.0
17/08:00am 21.1 17.6 13.5 62 4.4 E 24 32 13 17 1018.6 1018.5 0.0
17/07:30am 20.4 17.7 13.4 64 4.0 E 20 30 11 16 1018.5 1018.4 0.0
17/07:00am 20.1 17.3 13.1 64 4.0 E 20 26 11 14 1018.4 1018.3 0.0
17/06:30am 20.2 16.9 12.9 63 4.1 ESE 22 32 12 17 1018.2 1018.1 0.0
17/06:00am 20.3 17.2 13.3 64 4.0 ESE 22 32 12 17 1018.0 1017.9 0.0
17/05:30am 20.4 17.6 13.1 63 4.2 ESE 20 28 11 15 1018.1 1018.0 0.0
17/05:00am 20.5 17.7 13.2 63 4.2 ESE 20 26 11 14 1017.8 1017.7 0.0
17/04:30am 20.9 17.8 13.4 62 4.3 ESE 22 33 12 18 1017.7 1017.6 0.0
17/04:00am 20.8 18.0 13.3 62 4.3 ESE 20 28 11 15 1017.6 1017.5 0.0
17/03:30am 21.0 17.9 13.4 62 4.4 ESE 22 28 12 15 1017.8 1017.7 0.0
17/03:00am 21.0 18.0 13.7 63 4.2 ESE 22 26 12 14 1017.9 1017.8 0.0
17/02:30am 21.0 18.4 13.7 63 4.2 ESE 20 28 11 15 1018.0 1017.9 0.0
17/02:00am 21.3 18.6 13.5 61 4.5 ESE 20 28 11 15 1018.4 1018.3 0.0
17/01:30am 21.6 18.9 13.5 60 4.7 ESE 20 30 11 16 1018.4 1018.3 0.0
17/01:00am 21.8 19.2 13.7 60 4.7 ESE 20 30 11 16 1018.6 1018.5 0.0
17/12:30am 22.3 18.5 13.6 58 5.0 ESE 26 37 14 20 1018.7 1018.6 0.0
17/12:00am 22.6 18.8 13.7 57 5.2 ESE 26 41 14 22 1018.7 1018.6 0.0
 
Date/Time
WST
Temp
°C
App
Temp
°C
Dew
Point
Rel
Hum
%
Delta-T
°C
Wind Press
QNH
hPa
Press
MSL
hPa
Rain
since 9 am
mm
Dir
 
Spd
km/h
Gust
km/h
Spd
kts
Gust
kts
16/11:30pm 22.9 19.0 13.4 55 5.5 ESE 26 35 14 19 1018.8 1018.7 0.0
16/11:00pm 23.3 19.4 13.2 53 5.8 ESE 26 35 14 19 1019.1 1019.0 0.0
16/10:30pm 23.7 19.7 13.0 51 6.2 ESE 26 33 14 18 1019.2 1019.1 0.0
16/10:00pm 24.0 20.4 12.9 50 6.4 ESE 24 37 13 20 1019.2 1019.1 0.0
16/09:30pm 24.0 20.4 13.2 50 6.3 ESE 24 32 13 17 1019.4 1019.3 0.0
16/09:00pm 22.8 21.0 14.4 59 4.9 ESE 17 20 9 11 1019.5 1019.4 0.0

Other Formats:

Comma delimited format used in spreadsheet applications
http://www.bom.gov.au/fwo/IDW60801/IDW60801.95402.axf

JavaScript Object Notation format (JSON) in row-major order
http://www.bom.gov.au/fwo/IDW60801/IDW60801.95402.json